createdAt,value
2023-09-12T00:01:00.159Z,69.10
2023-09-12T00:03:29.697Z,68.56
2023-09-12T00:05:59.023Z,69.09
2023-09-12T00:08:27.329Z,69.58
2023-09-12T00:11:03.535Z,70.00
2023-09-12T00:13:32.737Z,70.33
2023-09-12T00:16:01.147Z,70.65
2023-09-12T00:18:30.926Z,70.46
2023-09-12T00:21:02.319Z,70.20
2023-09-12T00:23:34.621Z,70.63
2023-09-12T00:26:02.755Z,70.60
2023-09-12T00:28:30.831Z,70.93
2023-09-12T00:31:01.671Z,70.83
2023-09-12T00:33:31.299Z,70.88
2023-09-12T00:35:59.503Z,70.43
2023-09-12T00:38:27.730Z,70.09
2023-09-12T00:40:55.788Z,70.72
2023-09-12T00:43:23.943Z,71.12
2023-09-12T00:45:52.029Z,71.22
2023-09-12T00:48:21.200Z,71.35
2023-09-12T00:50:53.726Z,70.98
2023-09-12T00:53:22.430Z,71.65
2023-09-12T00:55:57.500Z,71.53
2023-09-12T00:58:26.344Z,71.66
2023-09-12T01:00:54.377Z,71.43
2023-09-12T01:03:22.567Z,70.65
2023-09-12T01:05:53.173Z,71.41
2023-09-12T01:08:21.404Z,71.92
2023-09-12T01:10:51.979Z,71.78
2023-09-12T01:13:20.203Z,71.80
2023-09-12T01:15:48.378Z,71.58
2023-09-12T01:18:16.599Z,71.72
2023-09-12T01:21:01.052Z,71.78
2023-09-12T01:23:46.001Z,71.93
2023-09-12T01:26:31.579Z,72.35
2023-09-12T01:29:02.831Z,72.08
2023-09-12T01:31:32.254Z,71.85
2023-09-12T01:34:00.538Z,71.36
2023-09-12T01:36:28.647Z,71.54
2023-09-12T01:39:01.407Z,71.52
2023-09-12T01:41:33.219Z,71.05
2023-09-12T01:44:05.171Z,70.70
2023-09-12T01:46:39.259Z,71.63
2023-09-12T01:49:10.823Z,71.62
2023-09-12T01:51:39.527Z,71.74
2023-09-12T01:54:09.301Z,71.62
2023-09-12T01:56:37.658Z,72.24
2023-09-12T01:59:07.459Z,72.08
2023-09-12T02:01:35.661Z,72.22
2023-09-12T02:04:09.851Z,72.01
2023-09-12T02:06:40.447Z,71.72
2023-09-12T02:09:08.551Z,71.90
2023-09-12T02:11:36.586Z,72.25
2023-09-12T02:14:06.227Z,72.12
2023-09-12T02:16:34.333Z,72.02
2023-09-12T02:19:04.213Z,71.83
2023-09-12T02:21:32.574Z,71.83
2023-09-12T02:24:00.751Z,70.70
2023-09-12T02:26:29.143Z,70.85
2023-09-12T02:28:57.164Z,71.65
2023-09-12T02:31:26.640Z,71.53
2023-09-12T02:33:55.983Z,72.07
2023-09-12T02:36:24.147Z,71.62
2023-09-12T02:38:52.267Z,71.90
2023-09-12T02:41:20.319Z,72.32
2023-09-12T02:43:48.454Z,72.18
2023-09-12T02:46:16.595Z,72.01
2023-09-12T02:48:46.508Z,72.12
2023-09-12T02:51:14.808Z,72.58
2023-09-12T02:53:42.900Z,72.86
2023-09-12T02:56:10.998Z,72.59
2023-09-12T02:58:39.011Z,72.62
2023-09-12T03:01:07.730Z,72.43
2023-09-12T03:03:36.127Z,71.90
2023-09-12T03:06:06.078Z,71.81
2023-09-12T03:08:35.056Z,71.85
2023-09-12T03:11:04.111Z,72.26
2023-09-12T03:13:32.211Z,71.91
2023-09-12T03:16:00.417Z,72.68
2023-09-12T03:18:28.855Z,73.33
2023-09-12T03:20:57.250Z,73.22
2023-09-12T03:23:26.823Z,72.87
2023-09-12T03:25:55.017Z,72.66
2023-09-12T03:28:23.211Z,72.19
2023-09-12T03:30:52.755Z,72.14
2023-09-12T03:33:21.074Z,72.39
2023-09-12T03:35:50.550Z,73.27
2023-09-12T03:38:18.689Z,73.33
2023-09-12T03:40:48.168Z,73.00
2023-09-12T03:43:16.500Z,72.97
2023-09-12T03:45:44.514Z,72.94
2023-09-12T03:48:12.769Z,72.57
2023-09-12T03:50:40.919Z,72.92
2023-09-12T03:53:09.044Z,72.80
2023-09-12T03:55:37.340Z,72.87
2023-09-12T03:58:06.790Z,72.66
2023-09-12T04:00:35.031Z,72.82
2023-09-12T04:03:03.378Z,72.90
2023-09-12T04:05:31.575Z,73.41
2023-09-12T04:07:59.719Z,73.60
2023-09-12T04:10:27.812Z,73.42
2023-09-12T04:12:56.148Z,73.61
2023-09-12T04:15:25.704Z,73.38
2023-09-12T04:17:54.512Z,73.37
2023-09-12T04:20:22.651Z,73.05
2023-09-12T04:22:51.015Z,72.89
2023-09-12T04:25:21.223Z,73.29
2023-09-12T04:27:49.385Z,72.48
2023-09-12T04:30:17.618Z,72.76
2023-09-12T04:32:49.600Z,73.00
2023-09-12T04:35:19.034Z,73.16
2023-09-12T04:37:47.193Z,72.98
2023-09-12T04:40:16.914Z,73.13
2023-09-12T04:42:45.112Z,73.04
2023-09-12T04:45:13.307Z,73.35
2023-09-12T04:47:41.475Z,73.87
2023-09-12T04:50:12.873Z,73.97
2023-09-12T04:52:40.951Z,73.96
2023-09-12T04:55:09.710Z,73.41
2023-09-12T04:57:39.942Z,73.58
2023-09-12T05:00:12.238Z,73.86
2023-09-12T05:02:40.568Z,72.87
2023-09-12T05:05:10.823Z,73.15
2023-09-12T05:07:40.747Z,73.30
2023-09-12T05:10:09.596Z,73.61
2023-09-12T05:12:45.394Z,73.89
2023-09-12T05:15:13.485Z,74.29
2023-09-12T05:17:41.453Z,73.63
2023-09-12T05:20:12.816Z,73.50
2023-09-12T05:22:40.854Z,73.58
2023-09-12T05:25:11.930Z,73.63
2023-09-12T05:27:43.184Z,73.98
2023-09-12T05:30:11.997Z,74.31
2023-09-12T05:32:40.305Z,74.53
2023-09-12T05:35:20.729Z,74.83
2023-09-12T05:37:50.221Z,75.24
2023-09-12T05:40:18.739Z,75.01
2023-09-12T05:42:47.110Z,75.13
2023-09-12T05:45:15.415Z,74.91
2023-09-12T05:47:43.582Z,75.05
2023-09-12T05:50:13.639Z,74.83
2023-09-12T05:52:42.935Z,74.72
2023-09-12T05:55:12.739Z,74.72
2023-09-12T05:57:41.087Z,74.58
2023-09-12T06:00:12.266Z,74.45
2023-09-12T06:02:40.546Z,74.29
2023-09-12T06:05:09.816Z,74.08
2023-09-12T06:07:42.057Z,74.06
2023-09-12T06:10:11.486Z,73.50
2023-09-12T06:12:39.821Z,73.42
2023-09-12T06:15:09.008Z,72.67
2023-09-12T06:17:37.369Z,72.78
2023-09-12T06:20:07.738Z,72.57
2023-09-12T06:22:37.108Z,71.89
2023-09-12T06:25:10.386Z,72.17
2023-09-12T06:27:38.676Z,72.33
2023-09-12T06:30:08.346Z,71.75
2023-09-12T06:32:36.639Z,71.70
2023-09-12T06:35:05.051Z,71.83
2023-09-12T06:37:33.140Z,71.60
2023-09-12T06:40:01.222Z,71.43
2023-09-12T06:42:30.833Z,70.79
2023-09-12T06:44:59.252Z,70.65
2023-09-12T06:47:29.397Z,70.02
2023-09-12T06:49:57.866Z,69.77
2023-09-12T06:52:26.199Z,69.39
2023-09-12T06:54:54.433Z,68.80
2023-09-12T06:57:22.484Z,68.98
2023-09-12T06:59:52.174Z,68.49
2023-09-12T07:02:20.472Z,67.96
2023-09-12T07:04:48.845Z,67.94
2023-09-12T07:07:17.133Z,67.73
2023-09-12T07:09:45.497Z,67.62
2023-09-12T07:12:13.769Z,67.69
2023-09-12T07:14:41.936Z,67.52
2023-09-12T07:17:11.901Z,67.47
2023-09-12T07:19:40.673Z,67.12
2023-09-12T07:22:09.529Z,67.39
2023-09-12T07:24:37.618Z,66.42
2023-09-12T07:27:06.178Z,65.82
2023-09-12T07:29:34.327Z,66.32
2023-09-12T07:32:02.506Z,65.62
2023-09-12T07:34:32.076Z,64.41
2023-09-12T07:37:00.353Z,64.55
2023-09-12T07:39:31.590Z,65.03
2023-09-12T07:41:59.855Z,63.15
2023-09-12T07:44:30.941Z,61.91
2023-09-12T07:46:59.178Z,60.63
2023-09-12T07:49:28.218Z,58.70
2023-09-12T07:51:58.630Z,57.90
2023-09-12T07:54:26.935Z,58.24
2023-09-12T07:56:57.933Z,57.89
2023-09-12T07:59:26.815Z,56.74
2023-09-12T08:01:55.156Z,56.40
2023-09-12T08:04:23.645Z,56.35
2023-09-12T08:06:57.886Z,55.29
2023-09-12T08:09:53.661Z,55.32
2023-09-12T08:12:22.744Z,54.94
2023-09-12T08:14:51.168Z,54.67
2023-09-12T08:17:19.580Z,53.56
2023-09-12T08:19:47.904Z,53.92
2023-09-12T08:22:16.249Z,53.50
2023-09-12T08:24:44.568Z,53.38
2023-09-12T08:27:15.089Z,53.85
2023-09-12T08:29:45.927Z,54.63
2023-09-12T08:32:14.161Z,55.35
2023-09-12T08:34:45.392Z,55.62
2023-09-12T08:37:13.547Z,55.47
2023-09-12T08:39:46.496Z,55.93
2023-09-12T08:42:17.665Z,54.68
2023-09-12T08:44:46.406Z,55.54
2023-09-12T08:47:16.535Z,54.09
2023-09-12T08:49:45.231Z,53.60
2023-09-12T08:52:13.342Z,52.76
2023-09-12T08:54:41.458Z,51.73
2023-09-12T08:57:14.347Z,51.69
2023-09-12T08:59:49.558Z,51.35
2023-09-12T09:02:18.801Z,51.19
2023-09-12T09:04:50.834Z,52.70
2023-09-12T09:07:22.445Z,52.72
2023-09-12T09:09:53.191Z,53.48
2023-09-12T09:12:22.035Z,54.31
2023-09-12T09:14:51.771Z,54.92
2023-09-12T09:17:34.523Z,54.75
2023-09-12T09:20:07.186Z,53.92
2023-09-12T09:22:35.305Z,53.15
2023-09-12T09:25:13.965Z,52.60
2023-09-12T09:27:52.511Z,51.38
2023-09-12T09:30:41.607Z,50.90
2023-09-12T09:33:10.596Z,50.94
2023-09-12T09:35:39.855Z,51.10
2023-09-12T09:38:11.607Z,50.66
2023-09-12T09:40:48.563Z,49.25
2023-09-12T09:43:23.695Z,48.77
2023-09-12T09:45:53.681Z,48.12
2023-09-12T09:48:22.689Z,48.69
2023-09-12T09:50:53.012Z,49.23
2023-09-12T09:53:24.271Z,48.87
2023-09-12T09:55:52.504Z,49.73
2023-09-12T09:58:20.593Z,49.80
2023-09-12T10:00:55.255Z,50.16
2023-09-12T10:03:26.461Z,48.83
2023-09-12T10:05:59.419Z,48.33
2023-09-12T10:08:29.322Z,47.43
2023-09-12T10:10:57.496Z,48.00
2023-09-12T10:13:28.193Z,47.29
2023-09-12T10:15:59.643Z,47.48
2023-09-12T10:18:31.506Z,46.94
2023-09-12T10:21:07.341Z,46.78
2023-09-12T10:23:43.220Z,47.09
2023-09-12T10:26:19.029Z,46.07
2023-09-12T10:28:52.488Z,46.34
2023-09-12T10:31:22.754Z,45.12
2023-09-12T10:33:56.173Z,45.60
2023-09-12T10:36:28.327Z,44.65
2023-09-12T10:38:57.856Z,44.56
2023-09-12T10:41:27.109Z,44.54
2023-09-12T10:43:57.677Z,44.84
2023-09-12T10:46:26.087Z,44.62
2023-09-12T10:48:58.212Z,44.30
2023-09-12T10:51:26.710Z,43.45
2023-09-12T10:53:55.285Z,43.01
2023-09-12T10:56:25.645Z,43.40
2023-09-12T10:59:13.923Z,44.30
2023-09-12T11:01:44.197Z,44.94
2023-09-12T11:04:38.827Z,44.33
2023-09-12T11:07:35.113Z,43.51
2023-09-12T11:10:21.070Z,43.81
2023-09-12T11:12:51.162Z,42.98
2023-09-12T11:15:19.990Z,42.51
2023-09-12T11:17:49.084Z,41.47
2023-09-12T11:20:20.202Z,41.27
2023-09-12T11:22:49.974Z,40.66
2023-09-12T11:25:22.915Z,41.40
2023-09-12T11:28:08.596Z,41.68
2023-09-12T11:30:57.084Z,40.92
2023-09-12T11:33:26.821Z,40.44
2023-09-12T11:35:59.231Z,39.54
2023-09-12T11:38:34.404Z,39.79
2023-09-12T11:41:04.682Z,40.86
2023-09-12T11:43:33.894Z,40.19
2023-09-12T11:46:04.196Z,40.12
2023-09-12T11:48:33.022Z,39.79
2023-09-12T11:51:04.876Z,36.84
2023-09-12T11:53:36.692Z,37.13
2023-09-12T11:56:05.432Z,37.30
2023-09-12T11:58:33.768Z,37.41
2023-09-12T12:01:02.084Z,37.05
2023-09-12T12:03:30.677Z,37.18
2023-09-12T12:05:59.359Z,37.70
2023-09-12T12:08:32.756Z,37.58
2023-09-12T12:11:02.207Z,37.36
2023-09-12T12:13:31.187Z,37.89
2023-09-12T12:15:59.743Z,36.34
2023-09-12T12:18:30.735Z,37.25
2023-09-12T12:20:59.167Z,37.95
2023-09-12T12:23:28.745Z,36.76
2023-09-12T12:25:56.857Z,36.52
2023-09-12T12:28:26.500Z,36.68
2023-09-12T12:30:56.762Z,34.57
2023-09-12T12:34:43.424Z,35.72
2023-09-12T12:36:16.979Z,36.05
2023-09-12T12:39:53.964Z,35.11
2023-09-12T12:41:47.860Z,34.73
2023-09-12T12:44:19.374Z,35.23
2023-09-12T12:46:51.395Z,35.83
2023-09-12T12:49:21.784Z,35.11
2023-09-12T12:51:52.114Z,35.75
2023-09-12T12:54:25.415Z,34.09
2023-09-12T12:56:58.173Z,34.65
2023-09-12T12:59:26.560Z,33.98
2023-09-12T13:01:54.759Z,34.11
2023-09-12T13:04:23.730Z,33.68
2023-09-12T13:06:51.906Z,32.21
2023-09-12T13:09:23.657Z,31.65
2023-09-12T13:11:57.649Z,32.82
2023-09-12T13:14:31.930Z,33.69
2023-09-12T13:17:04.234Z,30.73
2023-09-12T13:19:37.231Z,30.68
2023-09-12T13:22:05.948Z,31.34
2023-09-12T13:24:36.391Z,32.77
2023-09-12T13:27:04.865Z,33.69
2023-09-12T13:29:33.023Z,31.92
2023-09-12T13:32:01.331Z,32.96
2023-09-12T13:34:29.606Z,33.21
2023-09-12T13:37:11.439Z,33.15
2023-09-12T13:39:41.599Z,33.77
2023-09-12T13:42:11.130Z,34.21
2023-09-12T13:44:41.913Z,34.67
2023-09-12T13:47:10.206Z,34.32
2023-09-12T13:49:38.628Z,33.83
2023-09-12T13:52:07.548Z,34.29
2023-09-12T13:54:35.787Z,35.03
2023-09-12T13:57:05.705Z,34.12
2023-09-12T13:59:44.018Z,35.44
2023-09-12T14:02:14.392Z,35.50
2023-09-12T14:04:43.727Z,35.46
2023-09-12T14:07:13.425Z,34.76
2023-09-12T14:09:43.356Z,35.83
2023-09-12T14:12:24.844Z,35.98
2023-09-12T14:15:05.488Z,36.82
2023-09-12T14:17:50.249Z,35.76
2023-09-12T14:20:24.886Z,36.43
2023-09-12T14:22:53.936Z,36.82
2023-09-12T14:25:28.207Z,36.96
2023-09-12T14:27:59.453Z,37.42
2023-09-12T14:30:36.424Z,35.97
2023-09-12T14:33:05.300Z,35.63
2023-09-12T14:35:40.625Z,36.05
2023-09-12T14:38:08.816Z,36.28
2023-09-12T14:40:37.138Z,36.70
2023-09-12T14:43:11.505Z,36.01
2023-09-12T14:45:40.958Z,37.02
2023-09-12T14:48:10.812Z,36.48
2023-09-12T14:50:42.889Z,38.01
2023-09-12T14:53:13.078Z,39.86
2023-09-12T14:55:41.605Z,39.68
2023-09-12T14:58:18.189Z,40.06
2023-09-12T15:00:46.691Z,40.86
2023-09-12T15:03:14.959Z,41.39
2023-09-12T15:05:43.378Z,42.31
2023-09-12T15:08:12.068Z,43.07
2023-09-12T15:10:42.203Z,43.28
2023-09-12T15:13:12.442Z,43.42
2023-09-12T15:15:40.630Z,43.48
2023-09-12T15:18:09.018Z,43.79
2023-09-12T15:20:37.251Z,43.49
2023-09-12T15:23:06.655Z,43.83
2023-09-12T15:25:34.651Z,43.61
2023-09-12T15:28:02.878Z,42.89
2023-09-12T15:30:32.354Z,43.68
2023-09-12T15:33:00.596Z,42.61
2023-09-12T15:35:28.827Z,43.67
2023-09-12T15:37:57.035Z,42.62
2023-09-12T15:40:25.138Z,43.00
2023-09-12T15:45:51.862Z,43.10
2023-09-12T15:48:20.344Z,43.44
2023-09-12T15:50:48.572Z,43.89
2023-09-12T15:53:17.277Z,44.45
2023-09-12T15:55:45.528Z,44.72
2023-09-12T15:58:16.314Z,45.48
2023-09-12T16:00:46.557Z,45.21
2023-09-12T16:03:16.327Z,45.61
2023-09-12T16:05:45.902Z,47.46
2023-09-12T16:08:17.075Z,47.85
2023-09-12T16:10:45.161Z,47.57
2023-09-12T16:13:15.361Z,48.47
2023-09-12T16:15:43.647Z,48.36
2023-09-12T16:18:12.039Z,48.61
2023-09-12T16:20:41.702Z,49.22
2023-09-12T16:23:09.846Z,50.18
2023-09-12T16:25:38.108Z,50.28
2023-09-12T16:28:06.856Z,49.93
2023-09-12T16:30:38.145Z,49.30
2023-09-12T16:33:06.832Z,48.82
2023-09-12T16:35:35.032Z,48.52
2023-09-12T16:38:04.808Z,48.05
2023-09-12T16:40:33.565Z,48.85
2023-09-12T16:43:02.574Z,48.27
2023-09-12T16:45:31.300Z,49.13
2023-09-12T16:47:59.442Z,49.35
2023-09-12T16:50:28.189Z,49.96
2023-09-12T16:52:56.241Z,50.67
2023-09-12T16:55:27.077Z,50.87
2023-09-12T16:57:56.983Z,50.04
2023-09-12T17:00:25.375Z,50.04
2023-09-12T17:02:53.495Z,51.40
2023-09-12T17:05:24.310Z,51.74
2023-09-12T17:07:52.652Z,53.54
2023-09-12T17:10:21.631Z,53.90
2023-09-12T17:12:51.101Z,54.23
2023-09-12T17:15:19.849Z,54.87
2023-09-12T17:17:48.078Z,54.47
2023-09-12T17:20:16.288Z,54.73
2023-09-12T17:22:44.518Z,55.54
2023-09-12T17:25:13.841Z,55.43
2023-09-12T17:27:42.245Z,56.05
2023-09-12T17:30:12.638Z,55.89
2023-09-12T17:32:40.869Z,56.20
2023-09-12T17:35:10.135Z,57.39
2023-09-12T17:37:38.227Z,58.57
2023-09-12T17:40:10.265Z,57.49
2023-09-12T17:42:38.653Z,57.34
2023-09-12T17:45:08.328Z,55.67
2023-09-12T17:47:37.940Z,54.60
2023-09-12T17:50:07.036Z,53.48
2023-09-12T17:52:35.047Z,53.85
2023-09-12T17:55:03.008Z,54.26
2023-09-12T17:57:31.144Z,53.67
2023-09-12T17:59:59.351Z,53.84
2023-09-12T18:02:27.474Z,53.06
2023-09-12T18:04:57.047Z,53.57
2023-09-12T18:07:25.787Z,53.38
2023-09-12T18:09:53.953Z,53.35
2023-09-12T18:12:22.972Z,53.49
2023-09-12T18:14:51.082Z,53.81
2023-09-12T18:17:19.225Z,53.61
2023-09-12T18:19:47.248Z,53.39
2023-09-12T18:22:17.981Z,53.54
2023-09-12T18:24:46.111Z,53.83
2023-09-12T18:27:14.420Z,54.16
2023-09-12T18:29:44.902Z,54.24
2023-09-12T18:32:13.083Z,54.29
2023-09-12T18:34:41.159Z,55.03
2023-09-12T18:37:13.469Z,55.38
2023-09-12T18:39:44.456Z,55.61
2023-09-12T18:42:12.819Z,55.71
2023-09-12T18:44:40.889Z,55.35
2023-09-12T18:47:09.341Z,54.69
2023-09-12T18:49:37.574Z,54.90
2023-09-12T18:52:08.220Z,54.77
2023-09-12T18:54:37.220Z,54.52
2023-09-12T18:57:12.883Z,54.11
2023-09-12T18:59:41.092Z,54.15
2023-09-12T19:02:10.154Z,54.56
2023-09-12T19:04:38.933Z,54.83
2023-09-12T19:07:07.552Z,55.98
2023-09-12T19:09:35.738Z,55.82
2023-09-12T19:12:05.088Z,56.07
2023-09-12T19:14:34.780Z,56.25
2023-09-12T19:17:06.746Z,55.36
2023-09-12T19:19:34.928Z,55.00
2023-09-12T19:22:03.527Z,53.84
2023-09-12T19:24:31.539Z,53.92
2023-09-12T19:26:59.614Z,54.00
2023-09-12T19:29:27.674Z,54.24
2023-09-12T19:31:57.487Z,53.78
2023-09-12T19:34:25.577Z,53.86
2023-09-12T19:36:54.692Z,52.84
2023-09-12T19:39:22.740Z,52.79
2023-09-12T19:41:50.819Z,52.07
2023-09-12T19:44:19.292Z,52.26
2023-09-12T19:46:47.534Z,52.72
2023-09-12T19:49:17.052Z,52.94
2023-09-12T19:51:46.696Z,52.94
2023-09-12T19:54:15.056Z,53.22
2023-09-12T19:56:43.300Z,52.97
2023-09-12T19:59:11.688Z,53.10
2023-09-12T20:01:39.885Z,53.05
2023-09-12T20:04:08.231Z,52.46
2023-09-12T20:06:38.010Z,52.94
2023-09-12T20:09:11.791Z,53.01
2023-09-12T20:11:39.917Z,52.76
2023-09-12T20:14:08.091Z,53.69
2023-09-12T20:16:36.111Z,53.89
2023-09-12T20:19:06.729Z,54.74
2023-09-12T20:21:35.196Z,54.61
2023-09-12T20:24:07.398Z,54.80
2023-09-12T20:26:35.640Z,54.68
2023-09-12T20:29:07.243Z,54.85
2023-09-12T20:31:36.424Z,55.08
2023-09-12T20:34:05.079Z,55.00
2023-09-12T20:36:35.151Z,54.94
2023-09-12T20:39:29.982Z,55.40
2023-09-12T20:41:59.111Z,55.67
2023-09-12T20:44:27.943Z,56.03
2023-09-12T20:46:57.121Z,55.71
2023-09-12T20:49:25.394Z,55.10
2023-09-12T20:51:56.174Z,54.44
2023-09-12T20:54:24.510Z,54.49
2023-09-12T20:56:54.173Z,54.88
2023-09-12T20:59:22.476Z,55.43
2023-09-12T21:01:50.817Z,55.21
2023-09-12T21:04:19.377Z,55.08
2023-09-12T21:06:47.917Z,54.63
2023-09-12T21:09:16.674Z,55.01
2023-09-12T21:11:45.070Z,55.23
2023-09-12T21:14:15.094Z,54.99
2023-09-12T21:16:45.478Z,55.11
2023-09-12T21:19:13.757Z,54.85
2023-09-12T21:21:42.250Z,55.08
2023-09-12T21:24:10.661Z,55.02
2023-09-12T21:26:38.834Z,54.53
2023-09-12T21:29:07.291Z,55.32
2023-09-12T21:31:37.470Z,55.25
2023-09-12T21:34:05.973Z,55.30
2023-09-12T21:36:34.385Z,54.30
2023-09-12T21:39:04.723Z,54.98
2023-09-12T21:41:34.115Z,55.40
2023-09-12T21:44:02.647Z,55.28
2023-09-12T21:46:33.607Z,54.36
2023-09-12T21:49:04.923Z,54.31
2023-09-12T21:51:33.122Z,54.72
2023-09-12T21:54:01.288Z,54.64
2023-09-12T21:56:29.561Z,54.73
2023-09-12T21:58:57.660Z,55.26
2023-09-12T22:01:26.507Z,54.54
2023-09-12T22:03:55.000Z,55.44
2023-09-12T22:06:26.978Z,55.37
2023-09-12T22:08:56.095Z,55.83
2023-09-12T22:11:25.768Z,54.96
2023-09-12T22:13:53.934Z,55.06
2023-09-12T22:16:24.985Z,55.42
2023-09-12T22:18:53.302Z,55.37
2023-09-12T22:21:21.674Z,55.76
2023-09-12T22:23:53.886Z,55.74
2023-09-12T22:26:22.214Z,55.58
2023-09-12T22:28:50.759Z,55.28
2023-09-12T22:31:19.217Z,55.87
2023-09-12T22:33:55.698Z,56.01
2023-09-12T22:36:24.010Z,56.23
2023-09-12T22:38:55.578Z,56.54
2023-09-12T22:41:26.217Z,56.91
2023-09-12T22:43:55.332Z,57.59
2023-09-12T22:46:23.677Z,57.63
2023-09-12T22:48:53.653Z,57.35
2023-09-12T22:51:21.953Z,57.58
2023-09-12T22:53:50.652Z,58.08
2023-09-12T22:56:20.498Z,58.48
2023-09-12T22:58:49.240Z,57.96
2023-09-12T23:01:17.672Z,58.28
2023-09-12T23:03:48.276Z,59.03
2023-09-12T23:06:20.317Z,59.38
2023-09-12T23:08:48.780Z,59.48
2023-09-12T23:11:17.057Z,60.17
2023-09-12T23:13:46.947Z,60.12
2023-09-12T23:16:15.291Z,59.90
2023-09-12T23:18:44.051Z,60.20
2023-09-12T23:21:14.621Z,60.57
2023-09-12T23:23:43.083Z,60.45
2023-09-12T23:26:11.370Z,60.38
2023-09-12T23:28:39.545Z,60.81
2023-09-12T23:31:10.364Z,60.71
2023-09-12T23:33:38.626Z,60.23
2023-09-12T23:36:11.315Z,60.58
2023-09-12T23:38:39.682Z,60.59
2023-09-12T23:41:07.900Z,60.27
2023-09-12T23:43:36.334Z,60.37
2023-09-12T23:46:04.656Z,60.38
2023-09-12T23:48:34.470Z,60.33
2023-09-12T23:51:02.658Z,60.88
2023-09-12T23:53:30.971Z,61.58
2023-09-12T23:56:02.854Z,63.79
2023-09-12T23:58:31.046Z,64.45
